Time;durP1;ratioP1;P1;durP2;ratioP2;P2;SDS_P1;SDS_P2;PMS_P1;PMS_P2;Temp;Humidity;BMP_temperature;BMP_pressure;BME280_temperature;BME280_humidity;BME280_pressure;Samples;Min_cycle;Max_cycle;Signal;HPM_P1;HPM_P2
2022/07/15 00:03:42;;;;;;;5.15;1.37;;;18.20;99.90;;;;;;6642555;89;20232;-80
2022/07/15 00:13:42;;;;;;;5.68;1.27;;;18.00;99.90;;;;;;6643322;89;20781;-80
2022/07/15 00:23:43;;;;;;;2.20;1.12;;;17.70;99.90;;;;;;6643181;89;20311;-80
2022/07/15 00:33:43;;;;;;;4.95;1.60;;;17.60;99.90;;;;;;6642327;89;20231;-80
2022/07/15 00:43:44;;;;;;;5.93;1.73;;;17.50;99.90;;;;;;6638757;89;20278;-80
2022/07/15 01:04:08;;;;;;;4.82;1.70;;;16.90;99.90;;;;;;6676218;77;20207;-79
2022/07/15 01:14:09;;;;;;;8.30;1.48;;;16.90;99.90;;;;;;6662067;89;20333;-79
2022/07/15 01:24:09;;;;;;;3.37;1.60;;;16.70;99.90;;;;;;6667382;89;20212;-79
2022/07/15 01:34:10;;;;;;;6.62;1.83;;;16.50;99.90;;;;;;6671224;89;20184;-79
2022/07/15 01:44:13;;;;;;;4.07;1.70;;;16.30;99.90;;;;;;6666321;89;20217;-79
2022/07/15 01:54:14;;;;;;;5.85;1.77;;;16.10;99.90;;;;;;6648485;89;20239;-79
2022/07/15 02:04:15;;;;;;;6.15;1.80;;;16.20;99.90;;;;;;6665011;89;21014;-79
2022/07/15 02:14:16;;;;;;;4.78;1.70;;;16.10;99.90;;;;;;6662274;89;20206;-78
2022/07/15 02:24:19;;;;;;;3.37;1.80;;;16.10;99.90;;;;;;6658149;89;20213;-78
2022/07/15 02:34:19;;;;;;;8.05;2.42;;;16.30;99.90;;;;;;6658548;89;20211;-77
2022/07/15 02:44:20;;;;;;;7.45;2.12;;;16.20;99.90;;;;;;6659045;89;20187;-78
2022/07/15 02:54:20;;;;;;;6.93;2.10;;;16.10;99.90;;;;;;6657268;89;20214;-79
2022/07/15 03:04:21;;;;;;;8.02;2.30;;;16.30;99.90;;;;;;6658337;88;20208;-79
2022/07/15 03:14:21;;;;;;;5.75;2.15;;;16.50;99.90;;;;;;6654678;89;20188;-79
2022/07/15 03:24:22;;;;;;;6.05;1.90;;;16.70;99.90;;;;;;6657081;89;20282;-79
2022/07/15 03:34:25;;;;;;;8.77;2.20;;;16.80;99.90;;;;;;6657612;89;20239;-79
2022/07/15 03:44:25;;;;;;;5.18;1.60;;;17.10;99.90;;;;;;6657339;89;21910;-79
2022/07/15 03:54:26;;;;;;;6.05;1.50;;;17.20;99.90;;;;;;6640770;89;22006;-79
2022/07/15 04:04:26;;;;;;;5.90;1.55;;;17.20;99.90;;;;;;6660075;89;20200;-79
2022/07/15 04:14:27;;;;;;;6.65;1.40;;;17.10;99.90;;;;;;6665517;89;20306;-79
2022/07/15 04:24:27;;;;;;;4.82;1.40;;;17.00;99.90;;;;;;6665673;89;20219;-79
2022/07/15 04:34:28;;;;;;;5.62;1.10;;;17.00;99.90;;;;;;6667602;89;20686;-79
2022/07/15 04:44:28;;;;;;;7.53;1.77;;;16.90;99.90;;;;;;6652254;89;20374;-79
2022/07/15 04:54:29;;;;;;;6.50;2.03;;;16.90;99.90;;;;;;6659670;89;20180;-79
2022/07/15 05:04:29;;;;;;;8.68;1.98;;;16.70;99.90;;;;;;6669539;89;20200;-80
2022/07/15 05:14:30;;;;;;;5.47;2.00;;;16.90;99.90;;;;;;6670087;89;20733;-79
2022/07/15 05:24:30;;;;;;;6.75;2.08;;;16.80;99.90;;;;;;6670665;89;20207;-80
2022/07/15 05:34:31;;;;;;;9.77;2.50;;;16.70;99.90;;;;;;6667709;89;20200;-79
2022/07/15 05:44:32;;;;;;;8.30;2.50;;;16.60;99.90;;;;;;6660892;89;20300;-80
2022/07/15 05:54:33;;;;;;;6.22;2.55;;;16.60;99.90;;;;;;6657129;89;20244;-79
2022/07/15 06:04:33;;;;;;;6.87;2.60;;;16.60;99.90;;;;;;6657796;89;20217;-80
2022/07/15 06:14:34;;;;;;;9.27;3.17;;;16.80;99.90;;;;;;6657972;89;20192;-78
2022/07/15 06:24:34;;;;;;;8.75;2.95;;;16.90;99.90;;;;;;6659590;89;20203;-79
2022/07/15 06:34:35;;;;;;;9.93;3.17;;;16.90;99.90;;;;;;6654620;89;20214;-80
2022/07/15 06:44:35;;;;;;;12.30;3.00;;;16.80;99.90;;;;;;6660765;89;20460;-79
2022/07/15 06:55:17;;;;;;;11.65;3.30;;;17.00;99.90;;;;;;6673126;78;20292;-80
2022/07/15 07:05:17;;;;;;;8.27;3.05;;;16.90;99.90;;;;;;6679749;89;20237;-80
2022/07/15 07:15:20;;;;;;;9.77;2.40;;;17.80;99.90;;;;;;6668287;89;20699;-80
2022/07/15 07:25:21;;;;;;;6.35;1.75;;;19.30;99.90;;;;;;6669644;89;20246;-80
2022/07/15 07:35:21;;;;;;;8.27;1.90;;;19.50;99.90;;;;;;6668996;89;20250;-79
2022/07/15 07:45:23;;;;;;;9.17;1.80;;;19.30;99.90;;;;;;6671275;89;20667;-79
2022/07/15 07:55:23;;;;;;;6.07;1.67;;;18.90;99.90;;;;;;6676518;89;20216;-80
2022/07/15 08:05:25;;;;;;;4.90;1.33;;;18.50;99.90;;;;;;6672808;89;20216;-79
2022/07/15 08:15:26;;;;;;;3.62;1.00;;;18.70;99.90;;;;;;6665818;89;20211;-80
2022/07/15 08:25:32;;;;;;;4.43;0.90;;;19.50;98.60;;;;;;6671524;89;20636;-80
2022/07/15 08:35:34;;;;;;;3.97;0.90;;;21.60;92.20;;;;;;6675769;89;20320;-81
2022/07/15 08:45:37;;;;;;;4.72;0.93;;;21.00;91.80;;;;;;6676325;89;20258;-79
2022/07/15 08:55:38;;;;;;;4.95;1.30;;;20.90;91.90;;;;;;6670700;89;20216;-80
2022/07/15 09:05:38;;;;;;;4.32;0.80;;;20.50;94.90;;;;;;6671732;89;20215;-81
2022/07/15 09:15:40;;;;;;;4.35;1.00;;;21.90;89.70;;;;;;6677759;89;20555;-80
2022/07/15 09:25:41;;;;;;;2.45;0.93;;;21.80;90.10;;;;;;6680572;89;20256;-82
2022/07/15 09:46:01;;;;;;;4.20;0.90;;;23.80;81.20;;;;;;6674972;89;20204;-81
2022/07/15 09:56:03;;;;;;;4.53;0.80;;;24.80;76.70;;;;;;6669942;89;20212;-81
2022/07/15 10:06:05;;;;;;;3.78;1.10;;;23.90;76.70;;;;;;6676696;89;20205;-82
2022/07/15 10:16:52;;;;;;;4.95;1.00;;;23.40;76.50;;;;;;6677930;89;20235;-80
2022/07/15 10:27:28;;;;;;;3.42;0.90;;;23.50;76.30;;;;;;6673405;89;20734;-80
2022/07/15 10:37:29;;;;;;;4.18;1.00;;;24.50;74.80;;;;;;6672128;89;20200;-80
2022/07/15 10:47:30;;;;;;;3.10;1.23;;;25.30;72.20;;;;;;6680105;89;20754;-81
2022/07/15 10:57:42;;;;;;;4.10;1.10;;;25.60;71.00;;;;;;6679478;89;20209;-80
2022/07/15 11:07:43;;;;;;;5.57;1.08;;;24.30;73.60;;;;;;6679681;89;20195;-81
2022/07/15 11:17:50;;;;;;;3.00;1.10;;;23.30;75.90;;;;;;6676585;89;20205;-81
2022/07/15 11:28:02;;;;;;;4.12;1.62;;;24.70;72.80;;;;;;6675058;89;20707;-80
2022/07/15 11:38:04;;;;;;;3.30;1.50;;;24.60;73.80;;;;;;6681505;89;20203;-81
2022/07/15 11:48:08;;;;;;;3.83;1.70;;;26.70;68.40;;;;;;6674832;89;20280;-80
2022/07/15 11:58:09;;;;;;;3.15;1.60;;;25.60;70.70;;;;;;6678367;89;20193;-81
2022/07/15 12:08:09;;;;;;;4.47;1.80;;;26.30;67.80;;;;;;6678877;89;20632;-81
2022/07/15 12:18:10;;;;;;;6.65;2.12;;;26.90;66.40;;;;;;6674297;89;20199;-82
2022/07/15 12:28:11;;;;;;;4.40;1.90;;;26.10;68.90;;;;;;6671824;89;20197;-80
2022/07/15 12:38:29;;;;;;;3.92;1.90;;;25.20;68.70;;;;;;6675985;89;20659;-80
2022/07/15 12:48:29;;;;;;;4.45;1.48;;;27.70;67.50;;;;;;6677468;89;20201;-80
2022/07/15 13:09:32;;;;;;;3.90;1.00;;;29.60;61.90;;;;;;6665504;89;20629;-80
2022/07/15 13:19:32;;;;;;;3.17;1.00;;;29.70;60.20;;;;;;6664044;89;20208;-80
2022/07/15 13:29:33;;;;;;;1.62;0.80;;;28.20;61.10;;;;;;6665690;89;20766;-79
2022/07/15 13:39:34;;;;;;;3.90;0.90;;;26.80;62.50;;;;;;6678316;89;20214;-80
2022/07/15 13:59:54;;;;;;;4.00;1.40;;;29.00;61.10;;;;;;6680846;89;21018;-81
2022/07/15 14:09:55;;;;;;;2.05;0.80;;;28.10;61.90;;;;;;6680385;89;20644;-80
2022/07/15 14:19:55;;;;;;;2.90;0.80;;;28.90;61.30;;;;;;6677010;89;20208;-80
2022/07/15 14:29:56;;;;;;;2.75;1.20;;;27.60;61.10;;;;;;6679371;89;20249;-81
2022/07/15 14:39:56;;;;;;;2.28;0.90;;;26.40;63.20;;;;;;6678652;89;20223;-81
2022/07/15 14:49:57;;;;;;;3.03;0.75;;;25.90;63.50;;;;;;6675658;89;20312;-82
2022/07/15 14:59:57;;;;;;;3.45;1.05;;;25.20;65.10;;;;;;6677726;89;20214;-80
2022/07/15 15:09:58;;;;;;;5.93;1.00;;;26.30;64.40;;;;;;6677466;89;20202;-81
2022/07/15 15:20:03;;;;;;;1.92;0.70;;;25.40;64.30;;;;;;6676085;89;20216;-79
2022/07/15 15:30:06;;;;;;;2.08;0.70;;;24.50;65.70;;;;;;6672927;89;20184;-78
2022/07/15 15:40:09;;;;;;;3.60;0.90;;;25.00;65.80;;;;;;6667962;89;20211;-78
2022/07/15 15:50:09;;;;;;;2.27;0.60;;;25.40;65.70;;;;;;6668316;89;20193;-77
2022/07/15 16:00:11;;;;;;;3.03;0.80;;;26.30;65.00;;;;;;6669738;89;20895;-78
2022/07/15 16:10:12;;;;;;;3.37;0.70;;;27.40;64.00;;;;;;6674559;89;20214;-77
2022/07/15 16:20:12;;;;;;;2.72;0.70;;;26.60;64.10;;;;;;6672510;89;20703;-78
2022/07/15 16:30:13;;;;;;;3.85;0.93;;;26.20;65.60;;;;;;6667815;89;20196;-78
2022/07/15 16:40:15;;;;;;;3.67;0.80;;;25.80;66.20;;;;;;6667261;89;20286;-77
2022/07/15 16:50:16;;;;;;;4.05;1.00;;;25.00;66.20;;;;;;6665887;89;20175;-79
2022/07/15 17:00:17;;;;;;;3.33;1.00;;;24.50;66.60;;;;;;6666622;89;20639;-78
2022/07/15 17:10:17;;;;;;;7.25;1.00;;;24.20;66.30;;;;;;6664818;89;20207;-78
2022/07/15 17:20:18;;;;;;;5.43;0.90;;;24.50;67.20;;;;;;6670817;89;20207;-79
2022/07/15 17:30:19;;;;;;;3.37;0.70;;;25.60;65.40;;;;;;6665966;89;20611;-78
2022/07/15 17:40:20;;;;;;;3.37;0.87;;;26.20;65.60;;;;;;6666483;89;20298;-78
2022/07/15 17:50:21;;;;;;;3.35;0.70;;;26.40;65.00;;;;;;6667419;89;20519;-77
2022/07/15 18:00:22;;;;;;;3.50;0.90;;;25.70;66.00;;;;;;6664961;89;20267;-78
2022/07/15 18:10:22;;;;;;;1.98;0.70;;;27.00;63.70;;;;;;6673641;89;20199;-78
2022/07/15 18:20:23;;;;;;;2.97;0.90;;;25.70;62.60;;;;;;6666916;89;20328;-78
2022/07/15 18:30:24;;;;;;;4.07;0.80;;;24.40;65.60;;;;;;6666404;89;20282;-78
2022/07/15 18:40:24;;;;;;;3.87;0.75;;;25.10;64.80;;;;;;6666066;89;20335;-78
2022/07/15 19:00:28;;;;;;;3.70;0.70;;;23.10;68.50;;;;;;6669886;89;20833;-81
2022/07/15 19:10:28;;;;;;;3.97;0.90;;;22.60;70.30;;;;;;6671977;89;20361;-81
2022/07/15 19:20:30;;;;;;;4.05;1.00;;;22.20;70.50;;;;;;6678933;89;20344;-81
2022/07/15 19:30:31;;;;;;;2.85;0.90;;;21.70;70.90;;;;;;6674949;89;20306;-81
2022/07/15 19:40:32;;;;;;;2.72;0.90;;;21.40;72.20;;;;;;6669735;89;20559;-82
2022/07/15 19:50:33;;;;;;;5.12;1.08;;;21.00;74.30;;;;;;6668482;89;20635;-84
2022/07/15 20:00:33;;;;;;;4.37;1.27;;;20.70;75.10;;;;;;6675695;88;20290;-81
2022/07/15 20:10:34;;;;;;;4.35;1.10;;;20.50;75.50;;;;;;6706536;88;20260;-81
2022/07/15 20:20:35;;;;;;;8.65;4.95;;;20.50;86.80;;;;;;6692443;88;20673;-78
2022/07/15 20:30:35;;;;;;;4.45;2.12;;;20.40;86.80;;;;;;6678740;89;20245;-80
2022/07/15 20:40:36;;;;;;;7.12;2.87;;;19.80;90.30;;;;;;6675226;89;20231;-79
2022/07/15 20:50:38;;;;;;;7.00;1.87;;;19.50;91.30;;;;;;6672345;89;20218;-79
2022/07/15 21:00:39;;;;;;;5.60;1.80;;;19.30;91.90;;;;;;6674559;89;20182;-79
2022/07/15 21:10:40;;;;;;;2.12;1.10;;;19.00;93.60;;;;;;6676488;89;20675;-81
2022/07/15 21:20:40;;;;;;;6.50;1.30;;;18.90;94.60;;;;;;6676140;89;20265;-79
2022/07/15 21:30:41;;;;;;;3.20;1.40;;;18.60;95.50;;;;;;6676947;89;20217;-80
2022/07/15 21:40:41;;;;;;;5.32;2.00;;;18.30;97.20;;;;;;6676752;89;20320;-80
2022/07/15 21:50:43;;;;;;;3.00;1.20;;;18.20;98.00;;;;;;6674273;89;20265;-79
2022/07/15 22:00:44;;;;;;;4.60;1.77;;;18.20;98.10;;;;;;6677014;89;20566;-79
2022/07/15 22:10:44;;;;;;;5.18;1.70;;;17.80;99.90;;;;;;6665682;89;20192;-79
2022/07/15 22:20:45;;;;;;;5.07;1.70;;;17.80;99.90;;;;;;6659663;89;20625;-80
2022/07/15 22:30:45;;;;;;;4.47;2.03;;;17.60;99.90;;;;;;6657121;89;20251;-79
2022/07/15 22:40:46;;;;;;;4.93;1.50;;;17.40;99.90;;;;;;6664208;89;20242;-79
2022/07/15 22:50:47;;;;;;;4.18;1.58;;;17.20;99.90;;;;;;6661228;89;20215;-80
2022/07/15 23:00:47;;;;;;;6.55;1.50;;;17.00;99.90;;;;;;6661433;89;20326;-80
2022/07/15 23:10:48;;;;;;;4.72;1.45;;;16.80;99.90;;;;;;6659988;89;20659;-79
2022/07/15 23:20:48;;;;;;;5.28;1.48;;;17.00;99.90;;;;;;6659067;89;20195;-79
2022/07/15 23:30:49;;;;;;;3.95;1.10;;;16.80;99.90;;;;;;6658289;89;20231;-79
2022/07/15 23:40:49;;;;;;;7.20;1.40;;;16.50;99.90;;;;;;6657615;89;20279;-79
2022/07/15 23:50:50;;;;;;;5.37;1.50;;;16.70;99.90;;;;;;6659324;89;20271;-79
